![]() |
![]() |
Hora Fecha | Cota_Emb | Caud.G01 | Caud.G02 | Caud.G03 | Caud.G04 | Apert.Ver.1 | Apert.Ver.2 | Apert.Ver.3 | Apert.Ver.4 | Caud.Frey | Caud.Percy | Caud.Rios | |
hh:mm:ss mm/dd/aa | m.s.n.m. | m3/seg | m3/seg | m3/seg | m3/seg | mts | mts | mts | mts | m3/seg | m3/seg | m3/seg | |
00:59:00 09/01/26 | 472.18 | 0.00 | 80.81 | 0.00 | 87.80 | 0.00 | 0.00 | 0.00 | 0.00 | 188.00 | 9.00 | 228.00 | |
01:59:00 09/01/26 | 472.18 | 0.00 | 82.08 | 0.00 | 86.37 | 0.00 | 0.00 | 0.00 | 0.00 | 188.00 | 9.00 | 230.00 | |
02:59:00 09/01/26 | 472.21 | 0.00 | 79.70 | 0.00 | 84.31 | 0.00 | 0.00 | 0.00 | 0.00 | 188.00 | 9.00 | 230.00 | |
03:59:00 09/01/26 | 472.18 | 0.00 | 81.93 | 0.00 | 84.46 | 0.00 | 0.00 | 0.00 | 0.00 | 188.00 | 9.00 | 230.00 | |
04:59:00 09/01/26 | 472.18 | 0.00 | 79.55 | 0.00 | 86.21 | 0.00 | 0.00 | 0.00 | 0.00 | 189.00 | 9.00 | 230.00 | |
Hora Fecha | Temp.Amb. | Temp.Agua | %Humedad | Cota | Ten.Bat. | Evap.Dia | Evap.Mes | Pres.Atm | Lluv.Dia | Lluv.Mes | Dato_no | Vel.Vien. | |
hh:mm:ss mm/dd/aa | grados | grados | % | m.s.n.m. | V | mm | mm | hPa | mm | mm | Valido | km/h | |
00:59:00 09/01/26 | 4.75 | 4.10 | 85.50 | 339.20 | 13.60 | 0.00 | 0.00 | 980.00 | 0.20 | 0.20 | 0.00 | 1.90 | |
01:59:00 09/01/26 | 4.55 | 4.00 | 85.40 | 339.18 | 13.60 | 0.40 | 0.40 | 980.00 | 0.40 | 0.40 | 0.00 | 2.90 | |
02:59:00 09/01/26 | 4.35 | 4.10 | 87.30 | 339.16 | 13.60 | 0.40 | 0.40 | 980.00 | 0.40 | 0.40 | 0.00 | 0.00 | |
03:59:00 09/01/26 | 4.35 | 3.80 | 87.20 | 339.15 | 13.60 | 0.40 | 0.40 | 979.90 | 0.40 | 0.40 | 0.00 | 2.70 | |
04:59:00 09/01/26 | 3.35 | 4.10 | 89.40 | 339.18 | 13.60 | 0.90 | 0.90 | 980.00 | 0.40 | 0.40 | 0.00 | 1.70 | |
Hora Fecha | Temp.Amb. | Dato_no | %Humedad | Cota | Ten.Bat. | Dato_no | Dato_no | Dato_no | Lluv.Dia | Lluv.Mes | Dato_no | Vel.Vien. | |
hh:mm:ss mm/dd/aa | grados | Valido | % | mts | V | Valido | Valido | Valido | mm | mm | Valido | km/h | |
00:59:00 09/01/26 | 2.90 | 0.00 | 90.20 | 4.86 | 12.60 | 0.00 | 0.00 | 0.00 | 0.00 | 0.00 | 0.00 | 2.20 | |
01:59:00 09/01/26 | 3.30 | 0.00 | 93.30 | 4.87 | 12.60 | 0.00 | 0.00 | 0.00 | 0.00 | 0.00 | 0.00 | 1.10 | |
02:59:00 09/01/26 | 3.30 | 0.00 | 93.30 | 4.87 | 12.60 | 0.00 | 0.00 | 0.00 | 0.00 | 0.00 | 0.00 | 1.10 | |
03:59:00 09/01/26 | 3.30 | 0.00 | 93.30 | 4.87 | 12.60 | 0.00 | 0.00 | 0.00 | 0.00 | 0.00 | 0.00 | 1.10 | |
04:59:00 09/01/26 | 3.70 | 0.00 | 89.40 | 4.87 | 12.60 | 0.00 | 0.00 | 0.00 | 0.00 | 0.00 | 0.00 | 1.10 | |
Hora Fecha | Temp.Amb. | Dato_no | %Humedad | Cota | Ten.Bat. | Dato_no | Dato_no | Pres.Atm | Lluv.Dia | Lluv.Mes | Di.Vien | Vel.Vien. | |
hh:mm:ss mm/dd/aa | grados | Valido | % | mts | V | Valido | Valido | hPa | mm | mm | grados | km/h | |
00:59:00 09/01/26 | 2.90 | 0.00 | 84.30 | 4.27 | 12.90 | 0.00 | 0.00 | 993.00 | 0.00 | 0.00 | 0.00 | 5.40 | |
01:59:00 09/01/26 | 3.30 | 0.00 | 81.10 | 4.27 | 12.90 | 0.00 | 0.00 | 993.00 | 1.00 | 1.00 | 0.00 | 1.10 | |
02:59:00 09/01/26 | 3.30 | 0.00 | 81.10 | 4.27 | 12.90 | 0.00 | 0.00 | 993.00 | 1.00 | 1.00 | 0.00 | 1.10 | |
03:59:00 09/01/26 | 3.30 | 0.00 | 81.10 | 4.27 | 12.90 | 0.00 | 0.00 | 993.00 | 1.00 | 1.00 | 0.00 | 1.10 | |
04:59:00 09/01/26 | 2.90 | 0.00 | 83.50 | 4.28 | 12.90 | 0.00 | 0.00 | 993.00 | 1.00 | 1.00 | 0.00 | 5.40 | |
Hora Fecha | Temp.Amb. | Dato_no | %Humedad | Cota | Ten.Bat. | Dato_no | Dato_no | Dato_no | Lluv.Dia | Lluv.Mes | Dato_no | Vel.Vien. | |
hh:mm:ss mm/dd/aa | grados | Valido | % | m.s.n.m. | V | Valido | Valido | Valido | mm | mm | Valido | km/h | |
00:59:00 09/01/26 | 2.50 | 0.00 | 97.20 | 472.10 | 12.80 | 0.00 | 0.00 | 0.00 | 1.00 | 1.00 | 0.00 | 1.10 | |
01:59:00 09/01/26 | 3.30 | 0.00 | 96.90 | 472.11 | 12.80 | 0.00 | 0.00 | 0.00 | 2.00 | 2.00 | 0.00 | 1.10 | |
02:59:00 09/01/26 | 3.30 | 0.00 | 96.90 | 472.11 | 12.80 | 0.00 | 0.00 | 0.00 | 2.00 | 2.00 | 0.00 | 1.10 | |
03:59:00 09/01/26 | 3.30 | 0.00 | 96.90 | 472.11 | 12.80 | 0.00 | 0.00 | 0.00 | 2.00 | 2.00 | 0.00 | 1.10 | |
04:59:00 09/01/26 | 3.30 | 0.00 | 96.50 | 472.12 | 12.80 | 0.00 | 0.00 | 0.00 | 3.00 | 3.00 | 0.00 | 0.00 | |
Hora Fecha | Temp.Amb. | Dato_no | %Humedad | Cota | Ten.Bat. | Dato_no | Dato_no | Dato_no | Lluv.Dia | Lluv.Mes | Dato_no | Vel.Vien. | |
hh:mm:ss mm/dd/aa | grados | Valido | % | mts | V | Valido | Valido | Valido | mm | mm | Valido | km/h | |
00:59:00 09/01/26 | 3.30 | 0.00 | 87.00 | 0.19 | 13.60 | 0.00 | 0.00 | 0.00 | 0.00 | 0.00 | 0.00 | 1.10 | |
01:59:00 09/01/26 | 3.30 | 0.00 | 87.00 | 0.19 | 13.60 | 0.00 | 0.00 | 0.00 | 0.00 | 0.00 | 0.00 | 1.10 | |
02:59:00 09/01/26 | 3.30 | 0.00 | 87.00 | 0.19 | 13.60 | 0.00 | 0.00 | 0.00 | 0.00 | 0.00 | 0.00 | 1.10 | |
03:59:00 09/01/26 | 3.30 | 0.00 | 87.00 | 0.19 | 13.60 | 0.00 | 0.00 | 0.00 | 0.00 | 0.00 | 0.00 | 1.10 | |
04:59:00 09/01/26 | 0.60 | 0.00 | 99.20 | 0.19 | 13.60 | 0.00 | 0.00 | 0.00 | 0.00 | 0.00 | 0.00 | 5.40 | |